sensor_id;sensor_type;location;lat;lon;timestamp;P1;durP1;ratioP1;P2;durP2;ratioP2
9665;SDS011;4871;52.004;5.924;2023-05-07T00:00:00;4.50;;;3.60;;
9665;SDS011;4871;52.004;5.924;2023-05-07T00:01:00;4.50;;;3.60;;
9665;SDS011;4871;52.004;5.924;2023-05-07T00:02:00;4.50;;;3.60;;
9665;SDS011;4871;52.004;5.924;2023-05-07T00:03:01;4.50;;;3.60;;
9665;SDS011;4871;52.004;5.924;2023-05-07T00:04:00;4.50;;;3.60;;
9665;SDS011;4871;52.004;5.924;2023-05-07T00:05:00;4.50;;;3.60;;
9665;SDS011;4871;52.004;5.924;2023-05-07T00:06:00;4.50;;;3.60;;
9665;SDS011;4871;52.004;5.924;2023-05-07T00:07:00;4.50;;;3.60;;
9665;SDS011;4871;52.004;5.924;2023-05-07T00:08:00;4.50;;;3.60;;
9665;SDS011;4871;52.004;5.924;2023-05-07T00:09:00;4.50;;;3.60;;
9665;SDS011;4871;52.004;5.924;2023-05-07T00:10:00;4.50;;;3.60;;
9665;SDS011;4871;52.004;5.924;2023-05-07T00:11:00;4.50;;;3.60;;
9665;SDS011;4871;52.004;5.924;2023-05-07T00:12:00;4.50;;;3.60;;
9665;SDS011;4871;52.004;5.924;2023-05-07T00:13:00;4.50;;;3.60;;
9665;SDS011;4871;52.004;5.924;2023-05-07T00:14:00;4.50;;;3.60;;
9665;SDS011;4871;52.004;5.924;2023-05-07T00:15:00;4.50;;;3.60;;
9665;SDS011;4871;52.004;5.924;2023-05-07T00:16:00;4.50;;;3.60;;
9665;SDS011;4871;52.004;5.924;2023-05-07T00:17:00;4.50;;;3.60;;
9665;SDS011;4871;52.004;5.924;2023-05-07T00:18:00;4.50;;;3.60;;
9665;SDS011;4871;52.004;5.924;2023-05-07T00:19:00;4.50;;;3.60;;
9665;SDS011;4871;52.004;5.924;2023-05-07T00:20:00;4.50;;;3.60;;
9665;SDS011;4871;52.004;5.924;2023-05-07T00:21:00;4.50;;;3.60;;
9665;SDS011;4871;52.004;5.924;2023-05-07T00:22:00;4.90;;;4.10;;
9665;SDS011;4871;52.004;5.924;2023-05-07T00:23:00;4.90;;;4.10;;
9665;SDS011;4871;52.004;5.924;2023-05-07T00:24:00;4.90;;;4.10;;
9665;SDS011;4871;52.004;5.924;2023-05-07T00:25:00;4.90;;;4.10;;
9665;SDS011;4871;52.004;5.924;2023-05-07T00:26:00;4.90;;;4.10;;
9665;SDS011;4871;52.004;5.924;2023-05-07T00:27:00;4.90;;;4.10;;
9665;SDS011;4871;52.004;5.924;2023-05-07T00:28:03;4.90;;;4.10;;
9665;SDS011;4871;52.004;5.924;2023-05-07T00:29:00;4.90;;;4.10;;
9665;SDS011;4871;52.004;5.924;2023-05-07T00:30:00;4.90;;;4.10;;
9665;SDS011;4871;52.004;5.924;2023-05-07T00:31:00;4.90;;;4.10;;
9665;SDS011;4871;52.004;5.924;2023-05-07T00:32:00;4.90;;;4.10;;
9665;SDS011;4871;52.004;5.924;2023-05-07T00:33:00;4.90;;;4.10;;
9665;SDS011;4871;52.004;5.924;2023-05-07T00:34:00;4.90;;;4.10;;
9665;SDS011;4871;52.004;5.924;2023-05-07T00:35:00;4.90;;;4.10;;
9665;SDS011;4871;52.004;5.924;2023-05-07T00:36:01;4.90;;;4.10;;
9665;SDS011;4871;52.004;5.924;2023-05-07T00:37:00;4.90;;;4.10;;
9665;SDS011;4871;52.004;5.924;2023-05-07T00:38:00;4.90;;;4.10;;
9665;SDS011;4871;52.004;5.924;2023-05-07T00:39:01;4.90;;;4.10;;
9665;SDS011;4871;52.004;5.924;2023-05-07T00:40:00;4.90;;;4.10;;
9665;SDS011;4871;52.004;5.924;2023-05-07T00:41:02;4.90;;;4.10;;
9665;SDS011;4871;52.004;5.924;2023-05-07T00:42:00;4.90;;;4.10;;
9665;SDS011;4871;52.004;5.924;2023-05-07T00:43:00;4.90;;;4.10;;
9665;SDS011;4871;52.004;5.924;2023-05-07T00:44:02;4.90;;;4.10;;
9665;SDS011;4871;52.004;5.924;2023-05-07T00:45:00;4.90;;;4.10;;
9665;SDS011;4871;52.004;5.924;2023-05-07T00:46:00;4.90;;;4.10;;
9665;SDS011;4871;52.004;5.924;2023-05-07T00:47:01;4.90;;;4.10;;
9665;SDS011;4871;52.004;5.924;2023-05-07T00:48:00;4.90;;;4.10;;
9665;SDS011;4871;52.004;5.924;2023-05-07T00:49:00;4.90;;;4.10;;
9665;SDS011;4871;52.004;5.924;2023-05-07T00:50:00;4.90;;;4.10;;
9665;SDS011;4871;52.004;5.924;2023-05-07T00:51:00;4.90;;;4.10;;
9665;SDS011;4871;52.004;5.924;2023-05-07T00:52:00;4.90;;;3.90;;
9665;SDS011;4871;52.004;5.924;2023-05-07T00:53:00;4.90;;;3.90;;
9665;SDS011;4871;52.004;5.924;2023-05-07T00:54:00;4.90;;;3.90;;
9665;SDS011;4871;52.004;5.924;2023-05-07T00:55:00;4.90;;;3.90;;
9665;SDS011;4871;52.004;5.924;2023-05-07T00:56:00;4.90;;;3.90;;
9665;SDS011;4871;52.004;5.924;2023-05-07T00:57:01;4.90;;;3.90;;
9665;SDS011;4871;52.004;5.924;2023-05-07T00:58:00;4.90;;;3.90;;
9665;SDS011;4871;52.004;5.924;2023-05-07T00:59:00;4.90;;;3.90;;
9665;SDS011;4871;52.004;5.924;2023-05-07T01:00:00;4.90;;;3.90;;
9665;SDS011;4871;52.004;5.924;2023-05-07T01:01:00;4.90;;;3.90;;
9665;SDS011;4871;52.004;5.924;2023-05-07T01:02:00;4.90;;;3.90;;
9665;SDS011;4871;52.004;5.924;2023-05-07T01:03:00;4.90;;;3.90;;
9665;SDS011;4871;52.004;5.924;2023-05-07T01:04:00;4.90;;;3.90;;
9665;SDS011;4871;52.004;5.924;2023-05-07T01:05:00;4.90;;;3.90;;
9665;SDS011;4871;52.004;5.924;2023-05-07T01:06:00;4.90;;;3.90;;
9665;SDS011;4871;52.004;5.924;2023-05-07T01:07:00;4.90;;;3.90;;
9665;SDS011;4871;52.004;5.924;2023-05-07T01:08:00;4.90;;;3.90;;
9665;SDS011;4871;52.004;5.924;2023-05-07T01:09:00;4.90;;;3.90;;
9665;SDS011;4871;52.004;5.924;2023-05-07T01:10:00;4.90;;;3.90;;
9665;SDS011;4871;52.004;5.924;2023-05-07T01:11:00;4.90;;;3.90;;
9665;SDS011;4871;52.004;5.924;2023-05-07T01:12:00;4.90;;;3.90;;
9665;SDS011;4871;52.004;5.924;2023-05-07T01:13:00;4.90;;;3.90;;
9665;SDS011;4871;52.004;5.924;2023-05-07T01:14:00;4.90;;;3.90;;
9665;SDS011;4871;52.004;5.924;2023-05-07T01:15:00;4.90;;;3.90;;
9665;SDS011;4871;52.004;5.924;2023-05-07T01:16:00;4.90;;;3.90;;
9665;SDS011;4871;52.004;5.924;2023-05-07T01:17:00;4.90;;;3.90;;
9665;SDS011;4871;52.004;5.924;2023-05-07T01:18:01;4.90;;;3.90;;
9665;SDS011;4871;52.004;5.924;2023-05-07T01:19:00;4.90;;;3.90;;
9665;SDS011;4871;52.004;5.924;2023-05-07T01:20:00;4.90;;;3.90;;
9665;SDS011;4871;52.004;5.924;2023-05-07T01:21:00;4.90;;;3.90;;
9665;SDS011;4871;52.004;5.924;2023-05-07T01:22:01;5.30;;;4.80;;
9665;SDS011;4871;52.004;5.924;2023-05-07T01:23:00;5.30;;;4.80;;
9665;SDS011;4871;52.004;5.924;2023-05-07T01:24:00;5.30;;;4.80;;
9665;SDS011;4871;52.004;5.924;2023-05-07T01:25:01;5.30;;;4.80;;
9665;SDS011;4871;52.004;5.924;2023-05-07T01:26:00;5.30;;;4.80;;
9665;SDS011;4871;52.004;5.924;2023-05-07T01:27:01;5.30;;;4.80;;
9665;SDS011;4871;52.004;5.924;2023-05-07T01:28:01;5.30;;;4.80;;
9665;SDS011;4871;52.004;5.924;2023-05-07T01:29:00;5.30;;;4.80;;
9665;SDS011;4871;52.004;5.924;2023-05-07T01:30:00;5.30;;;4.80;;
9665;SDS011;4871;52.004;5.924;2023-05-07T01:31:02;5.30;;;4.80;;
9665;SDS011;4871;52.004;5.924;2023-05-07T01:32:00;5.30;;;4.80;;
9665;SDS011;4871;52.004;5.924;2023-05-07T01:33:01;5.30;;;4.80;;
9665;SDS011;4871;52.004;5.924;2023-05-07T01:34:00;5.30;;;4.80;;
9665;SDS011;4871;52.004;5.924;2023-05-07T01:35:00;5.30;;;4.80;;
9665;SDS011;4871;52.004;5.924;2023-05-07T01:36:02;5.30;;;4.80;;
9665;SDS011;4871;52.004;5.924;2023-05-07T01:37:00;5.30;;;4.80;;
9665;SDS011;4871;52.004;5.924;2023-05-07T01:38:00;5.30;;;4.80;;
9665;SDS011;4871;52.004;5.924;2023-05-07T01:39:00;5.30;;;4.80;;
9665;SDS011;4871;52.004;5.924;2023-05-07T01:40:00;5.30;;;4.80;;
9665;SDS011;4871;52.004;5.924;2023-05-07T01:41:00;5.30;;;4.80;;
9665;SDS011;4871;52.004;5.924;2023-05-07T01:42:00;5.30;;;4.80;;
9665;SDS011;4871;52.004;5.924;2023-05-07T01:43:00;5.30;;;4.80;;
9665;SDS011;4871;52.004;5.924;2023-05-07T01:44:00;5.30;;;4.80;;
9665;SDS011;4871;52.004;5.924;2023-05-07T01:45:00;5.30;;;4.80;;
9665;SDS011;4871;52.004;5.924;2023-05-07T01:46:00;5.30;;;4.80;;
9665;SDS011;4871;52.004;5.924;2023-05-07T01:47:00;5.30;;;4.80;;
9665;SDS011;4871;52.004;5.924;2023-05-07T01:48:01;5.30;;;4.80;;
9665;SDS011;4871;52.004;5.924;2023-05-07T01:49:00;5.30;;;4.80;;
9665;SDS011;4871;52.004;5.924;2023-05-07T01:50:00;5.30;;;4.80;;
9665;SDS011;4871;52.004;5.924;2023-05-07T01:51:00;5.30;;;4.80;;
9665;SDS011;4871;52.004;5.924;2023-05-07T01:52:00;6.60;;;5.10;;
9665;SDS011;4871;52.004;5.924;2023-05-07T01:53:00;6.60;;;5.10;;
9665;SDS011;4871;52.004;5.924;2023-05-07T01:54:00;6.60;;;5.10;;
9665;SDS011;4871;52.004;5.924;2023-05-07T01:55:00;6.60;;;5.10;;
9665;SDS011;4871;52.004;5.924;2023-05-07T01:56:00;6.60;;;5.10;;
9665;SDS011;4871;52.004;5.924;2023-05-07T01:57:00;6.60;;;5.10;;
9665;SDS011;4871;52.004;5.924;2023-05-07T01:58:00;6.60;;;5.10;;
9665;SDS011;4871;52.004;5.924;2023-05-07T01:59:00;6.60;;;5.10;;
9665;SDS011;4871;52.004;5.924;2023-05-07T02:00:00;6.60;;;5.10;;
9665;SDS011;4871;52.004;5.924;2023-05-07T02:01:00;6.60;;;5.10;;
9665;SDS011;4871;52.004;5.924;2023-05-07T02:02:00;6.60;;;5.10;;
9665;SDS011;4871;52.004;5.924;2023-05-07T02:03:00;6.60;;;5.10;;
9665;SDS011;4871;52.004;5.924;2023-05-07T02:04:00;6.60;;;5.10;;
9665;SDS011;4871;52.004;5.924;2023-05-07T02:05:01;6.60;;;5.10;;
9665;SDS011;4871;52.004;5.924;2023-05-07T02:06:00;6.60;;;5.10;;
9665;SDS011;4871;52.004;5.924;2023-05-07T02:07:00;6.60;;;5.10;;
9665;SDS011;4871;52.004;5.924;2023-05-07T02:08:00;6.60;;;5.10;;
9665;SDS011;4871;52.004;5.924;2023-05-07T02:09:00;6.60;;;5.10;;
9665;SDS011;4871;52.004;5.924;2023-05-07T02:10:00;6.60;;;5.10;;
9665;SDS011;4871;52.004;5.924;2023-05-07T02:11:00;6.60;;;5.10;;
9665;SDS011;4871;52.004;5.924;2023-05-07T02:12:00;6.60;;;5.10;;
9665;SDS011;4871;52.004;5.924;2023-05-07T02:13:01;6.60;;;5.10;;
9665;SDS011;4871;52.004;5.924;2023-05-07T02:14:00;6.60;;;5.10;;
9665;SDS011;4871;52.004;5.924;2023-05-07T02:15:00;6.60;;;5.10;;
9665;SDS011;4871;52.004;5.924;2023-05-07T02:16:00;6.60;;;5.10;;
9665;SDS011;4871;52.004;5.924;2023-05-07T02:17:00;6.60;;;5.10;;
9665;SDS011;4871;52.004;5.924;2023-05-07T02:18:00;6.60;;;5.10;;
9665;SDS011;4871;52.004;5.924;2023-05-07T02:19:00;6.60;;;5.10;;
9665;SDS011;4871;52.004;5.924;2023-05-07T02:20:00;6.60;;;5.10;;
9665;SDS011;4871;52.004;5.924;2023-05-07T02:21:00;4.80;;;4.30;;
9665;SDS011;4871;52.004;5.924;2023-05-07T02:22:00;4.80;;;4.30;;
9665;SDS011;4871;52.004;5.924;2023-05-07T02:23:00;4.80;;;4.30;;
9665;SDS011;4871;52.004;5.924;2023-05-07T02:24:00;4.80;;;4.30;;
9665;SDS011;4871;52.004;5.924;2023-05-07T02:25:00;4.80;;;4.30;;
9665;SDS011;4871;52.004;5.924;2023-05-07T02:26:00;4.80;;;4.30;;
9665;SDS011;4871;52.004;5.924;2023-05-07T02:27:01;4.80;;;4.30;;
9665;SDS011;4871;52.004;5.924;2023-05-07T02:28:00;4.80;;;4.30;;
9665;SDS011;4871;52.004;5.924;2023-05-07T02:29:00;4.80;;;4.30;;
9665;SDS011;4871;52.004;5.924;2023-05-07T02:30:00;4.80;;;4.30;;
9665;SDS011;4871;52.004;5.924;2023-05-07T02:31:01;4.80;;;4.30;;
9665;SDS011;4871;52.004;5.924;2023-05-07T02:32:00;4.80;;;4.30;;
9665;SDS011;4871;52.004;5.924;2023-05-07T02:33:00;4.80;;;4.30;;
9665;SDS011;4871;52.004;5.924;2023-05-07T02:34:00;4.80;;;4.30;;
9665;SDS011;4871;52.004;5.924;2023-05-07T02:35:00;4.80;;;4.30;;
9665;SDS011;4871;52.004;5.924;2023-05-07T02:36:05;4.80;;;4.30;;
9665;SDS011;4871;52.004;5.924;2023-05-07T02:37:00;4.80;;;4.30;;
9665;SDS011;4871;52.004;5.924;2023-05-07T02:38:00;4.80;;;4.30;;
9665;SDS011;4871;52.004;5.924;2023-05-07T02:39:00;4.80;;;4.30;;
9665;SDS011;4871;52.004;5.924;2023-05-07T02:40:00;4.80;;;4.30;;
9665;SDS011;4871;52.004;5.924;2023-05-07T02:41:00;4.80;;;4.30;;
9665;SDS011;4871;52.004;5.924;2023-05-07T02:42:01;4.80;;;4.30;;
9665;SDS011;4871;52.004;5.924;2023-05-07T02:43:00;4.80;;;4.30;;
9665;SDS011;4871;52.004;5.924;2023-05-07T02:44:00;4.80;;;4.30;;
9665;SDS011;4871;52.004;5.924;2023-05-07T02:45:00;4.80;;;4.30;;
9665;SDS011;4871;52.004;5.924;2023-05-07T02:46:01;4.80;;;4.30;;
9665;SDS011;4871;52.004;5.924;2023-05-07T02:47:00;4.80;;;4.30;;
9665;SDS011;4871;52.004;5.924;2023-05-07T02:48:00;4.80;;;4.30;;
9665;SDS011;4871;52.004;5.924;2023-05-07T02:49:00;4.80;;;4.30;;
9665;SDS011;4871;52.004;5.924;2023-05-07T02:50:00;4.80;;;4.30;;
9665;SDS011;4871;52.004;5.924;2023-05-07T02:51:00;6.30;;;5.20;;
9665;SDS011;4871;52.004;5.924;2023-05-07T02:52:00;6.30;;;5.20;;
9665;SDS011;4871;52.004;5.924;2023-05-07T02:53:00;6.30;;;5.20;;
9665;SDS011;4871;52.004;5.924;2023-05-07T02:54:00;6.30;;;5.20;;
9665;SDS011;4871;52.004;5.924;2023-05-07T02:55:00;6.30;;;5.20;;
9665;SDS011;4871;52.004;5.924;2023-05-07T02:56:00;6.30;;;5.20;;
9665;SDS011;4871;52.004;5.924;2023-05-07T02:57:00;6.30;;;5.20;;
9665;SDS011;4871;52.004;5.924;2023-05-07T02:58:00;6.30;;;5.20;;
9665;SDS011;4871;52.004;5.924;2023-05-07T02:59:00;6.30;;;5.20;;
9665;SDS011;4871;52.004;5.924;2023-05-07T03:00:06;6.30;;;5.20;;
9665;SDS011;4871;52.004;5.924;2023-05-07T03:01:00;6.30;;;5.20;;
9665;SDS011;4871;52.004;5.924;2023-05-07T03:02:00;6.30;;;5.20;;
9665;SDS011;4871;52.004;5.924;2023-05-07T03:03:00;6.30;;;5.20;;
9665;SDS011;4871;52.004;5.924;2023-05-07T03:04:00;6.30;;;5.20;;
9665;SDS011;4871;52.004;5.924;2023-05-07T03:05:00;6.30;;;5.20;;
9665;SDS011;4871;52.004;5.924;2023-05-07T03:06:00;6.30;;;5.20;;
9665;SDS011;4871;52.004;5.924;2023-05-07T03:07:00;6.30;;;5.20;;
9665;SDS011;4871;52.004;5.924;2023-05-07T03:08:00;6.30;;;5.20;;
9665;SDS011;4871;52.004;5.924;2023-05-07T03:09:00;6.30;;;5.20;;
9665;SDS011;4871;52.004;5.924;2023-05-07T03:10:00;6.30;;;5.20;;
9665;SDS011;4871;52.004;5.924;2023-05-07T03:11:00;6.30;;;5.20;;
9665;SDS011;4871;52.004;5.924;2023-05-07T03:12:01;6.30;;;5.20;;
9665;SDS011;4871;52.004;5.924;2023-05-07T03:13:00;6.30;;;5.20;;
9665;SDS011;4871;52.004;5.924;2023-05-07T03:14:00;6.30;;;5.20;;
9665;SDS011;4871;52.004;5.924;2023-05-07T03:15:00;6.30;;;5.20;;
9665;SDS011;4871;52.004;5.924;2023-05-07T03:16:00;6.30;;;5.20;;
9665;SDS011;4871;52.004;5.924;2023-05-07T03:17:00;6.30;;;5.20;;
9665;SDS011;4871;52.004;5.924;2023-05-07T03:18:00;6.30;;;5.20;;
9665;SDS011;4871;52.004;5.924;2023-05-07T03:19:00;6.30;;;5.20;;
9665;SDS011;4871;52.004;5.924;2023-05-07T03:20:00;6.30;;;5.20;;
9665;SDS011;4871;52.004;5.924;2023-05-07T03:21:00;5.80;;;5.20;;
9665;SDS011;4871;52.004;5.924;2023-05-07T03:22:00;5.80;;;5.20;;
9665;SDS011;4871;52.004;5.924;2023-05-07T03:23:00;5.80;;;5.20;;
9665;SDS011;4871;52.004;5.924;2023-05-07T03:24:00;5.80;;;5.20;;
9665;SDS011;4871;52.004;5.924;2023-05-07T03:25:00;5.80;;;5.20;;
9665;SDS011;4871;52.004;5.924;2023-05-07T03:26:00;5.80;;;5.20;;
9665;SDS011;4871;52.004;5.924;2023-05-07T03:27:01;5.80;;;5.20;;
9665;SDS011;4871;52.004;5.924;2023-05-07T03:28:00;5.80;;;5.20;;
9665;SDS011;4871;52.004;5.924;2023-05-07T03:29:00;5.80;;;5.20;;
9665;SDS011;4871;52.004;5.924;2023-05-07T03:30:00;5.80;;;5.20;;
9665;SDS011;4871;52.004;5.924;2023-05-07T03:31:00;5.80;;;5.20;;
9665;SDS011;4871;52.004;5.924;2023-05-07T03:32:00;5.80;;;5.20;;
9665;SDS011;4871;52.004;5.924;2023-05-07T03:33:00;5.80;;;5.20;;
9665;SDS011;4871;52.004;5.924;2023-05-07T03:34:00;5.80;;;5.20;;
9665;SDS011;4871;52.004;5.924;2023-05-07T03:35:00;5.80;;;5.20;;
9665;SDS011;4871;52.004;5.924;2023-05-07T03:36:00;5.80;;;5.20;;
9665;SDS011;4871;52.004;5.924;2023-05-07T03:37:00;5.80;;;5.20;;
9665;SDS011;4871;52.004;5.924;2023-05-07T03:38:00;5.80;;;5.20;;
9665;SDS011;4871;52.004;5.924;2023-05-07T03:39:00;5.80;;;5.20;;
9665;SDS011;4871;52.004;5.924;2023-05-07T03:40:00;5.80;;;5.20;;
9665;SDS011;4871;52.004;5.924;2023-05-07T03:41:00;5.80;;;5.20;;
9665;SDS011;4871;52.004;5.924;2023-05-07T03:42:00;5.80;;;5.20;;
9665;SDS011;4871;52.004;5.924;2023-05-07T03:43:00;5.80;;;5.20;;
9665;SDS011;4871;52.004;5.924;2023-05-07T03:44:00;5.80;;;5.20;;
9665;SDS011;4871;52.004;5.924;2023-05-07T03:45:00;5.80;;;5.20;;
9665;SDS011;4871;52.004;5.924;2023-05-07T03:46:00;5.80;;;5.20;;
9665;SDS011;4871;52.004;5.924;2023-05-07T03:47:00;5.80;;;5.20;;
9665;SDS011;4871;52.004;5.924;2023-05-07T03:48:00;5.80;;;5.20;;
9665;SDS011;4871;52.004;5.924;2023-05-07T03:49:01;5.80;;;5.20;;
9665;SDS011;4871;52.004;5.924;2023-05-07T03:50:00;5.80;;;5.20;;
9665;SDS011;4871;52.004;5.924;2023-05-07T03:51:00;7.90;;;6.40;;
9665;SDS011;4871;52.004;5.924;2023-05-07T03:52:00;7.90;;;6.40;;
9665;SDS011;4871;52.004;5.924;2023-05-07T03:53:00;7.90;;;6.40;;
9665;SDS011;4871;52.004;5.924;2023-05-07T03:54:00;7.90;;;6.40;;
9665;SDS011;4871;52.004;5.924;2023-05-07T03:55:00;7.90;;;6.40;;
9665;SDS011;4871;52.004;5.924;2023-05-07T03:56:00;7.90;;;6.40;;
9665;SDS011;4871;52.004;5.924;2023-05-07T03:57:00;7.90;;;6.40;;
9665;SDS011;4871;52.004;5.924;2023-05-07T03:58:00;7.90;;;6.40;;
9665;SDS011;4871;52.004;5.924;2023-05-07T03:59:00;7.90;;;6.40;;
9665;SDS011;4871;52.004;5.924;2023-05-07T04:00:00;7.90;;;6.40;;
9665;SDS011;4871;52.004;5.924;2023-05-07T04:01:00;7.90;;;6.40;;
9665;SDS011;4871;52.004;5.924;2023-05-07T04:02:00;7.90;;;6.40;;
9665;SDS011;4871;52.004;5.924;2023-05-07T04:03:00;7.90;;;6.40;;
9665;SDS011;4871;52.004;5.924;2023-05-07T04:04:00;7.90;;;6.40;;
9665;SDS011;4871;52.004;5.924;2023-05-07T04:05:00;7.90;;;6.40;;
9665;SDS011;4871;52.004;5.924;2023-05-07T04:06:00;7.90;;;6.40;;
9665;SDS011;4871;52.004;5.924;2023-05-07T04:07:01;7.90;;;6.40;;
9665;SDS011;4871;52.004;5.924;2023-05-07T04:08:00;7.90;;;6.40;;
9665;SDS011;4871;52.004;5.924;2023-05-07T04:09:00;7.90;;;6.40;;
9665;SDS011;4871;52.004;5.924;2023-05-07T04:10:00;7.90;;;6.40;;
9665;SDS011;4871;52.004;5.924;2023-05-07T04:11:00;7.90;;;6.40;;
9665;SDS011;4871;52.004;5.924;2023-05-07T04:12:01;7.90;;;6.40;;
9665;SDS011;4871;52.004;5.924;2023-05-07T04:13:00;7.90;;;6.40;;
9665;SDS011;4871;52.004;5.924;2023-05-07T04:14:00;7.90;;;6.40;;
9665;SDS011;4871;52.004;5.924;2023-05-07T04:15:00;7.90;;;6.40;;
9665;SDS011;4871;52.004;5.924;2023-05-07T04:16:01;7.90;;;6.40;;
9665;SDS011;4871;52.004;5.924;2023-05-07T04:17:00;7.90;;;6.40;;
9665;SDS011;4871;52.004;5.924;2023-05-07T04:18:00;7.90;;;6.40;;
9665;SDS011;4871;52.004;5.924;2023-05-07T04:19:00;7.90;;;6.40;;
9665;SDS011;4871;52.004;5.924;2023-05-07T04:20:00;7.90;;;6.40;;
9665;SDS011;4871;52.004;5.924;2023-05-07T04:21:00;7.90;;;7.00;;
9665;SDS011;4871;52.004;5.924;2023-05-07T04:22:00;7.90;;;7.00;;
9665;SDS011;4871;52.004;5.924;2023-05-07T04:23:00;7.90;;;7.00;;
9665;SDS011;4871;52.004;5.924;2023-05-07T04:24:00;7.90;;;7.00;;
9665;SDS011;4871;52.004;5.924;2023-05-07T04:25:00;7.90;;;7.00;;
9665;SDS011;4871;52.004;5.924;2023-05-07T04:26:00;7.90;;;7.00;;
9665;SDS011;4871;52.004;5.924;2023-05-07T04:27:00;7.90;;;7.00;;
9665;SDS011;4871;52.004;5.924;2023-05-07T04:28:00;7.90;;;7.00;;
9665;SDS011;4871;52.004;5.924;2023-05-07T04:29:00;7.90;;;7.00;;
9665;SDS011;4871;52.004;5.924;2023-05-07T04:30:00;7.90;;;7.00;;
9665;SDS011;4871;52.004;5.924;2023-05-07T04:31:00;7.90;;;7.00;;
9665;SDS011;4871;52.004;5.924;2023-05-07T04:32:00;7.90;;;7.00;;
9665;SDS011;4871;52.004;5.924;2023-05-07T04:33:00;7.90;;;7.00;;
9665;SDS011;4871;52.004;5.924;2023-05-07T04:34:00;7.90;;;7.00;;
9665;SDS011;4871;52.004;5.924;2023-05-07T04:35:00;7.90;;;7.00;;
9665;SDS011;4871;52.004;5.924;2023-05-07T04:36:03;7.90;;;7.00;;
9665;SDS011;4871;52.004;5.924;2023-05-07T04:37:00;7.90;;;7.00;;
9665;SDS011;4871;52.004;5.924;2023-05-07T04:38:00;7.90;;;7.00;;
9665;SDS011;4871;52.004;5.924;2023-05-07T04:39:00;7.90;;;7.00;;
9665;SDS011;4871;52.004;5.924;2023-05-07T04:40:00;7.90;;;7.00;;
9665;SDS011;4871;52.004;5.924;2023-05-07T04:41:02;7.90;;;7.00;;
9665;SDS011;4871;52.004;5.924;2023-05-07T04:42:00;7.90;;;7.00;;
9665;SDS011;4871;52.004;5.924;2023-05-07T04:43:00;7.90;;;7.00;;
9665;SDS011;4871;52.004;5.924;2023-05-07T04:44:00;7.90;;;7.00;;
9665;SDS011;4871;52.004;5.924;2023-05-07T04:45:01;7.90;;;7.00;;
9665;SDS011;4871;52.004;5.924;2023-05-07T04:46:00;7.90;;;7.00;;
9665;SDS011;4871;52.004;5.924;2023-05-07T04:47:00;7.90;;;7.00;;
9665;SDS011;4871;52.004;5.924;2023-05-07T04:48:00;7.90;;;7.00;;
9665;SDS011;4871;52.004;5.924;2023-05-07T04:49:00;7.90;;;7.00;;
9665;SDS011;4871;52.004;5.924;2023-05-07T04:50:00;7.90;;;7.00;;
9665;SDS011;4871;52.004;5.924;2023-05-07T04:51:00;9.40;;;8.40;;
9665;SDS011;4871;52.004;5.924;2023-05-07T04:52:00;9.40;;;8.40;;
9665;SDS011;4871;52.004;5.924;2023-05-07T04:53:00;9.40;;;8.40;;
9665;SDS011;4871;52.004;5.924;2023-05-07T04:54:00;9.40;;;8.40;;
9665;SDS011;4871;52.004;5.924;2023-05-07T04:55:00;9.40;;;8.40;;
9665;SDS011;4871;52.004;5.924;2023-05-07T04:56:00;9.40;;;8.40;;
9665;SDS011;4871;52.004;5.924;2023-05-07T04:57:00;9.40;;;8.40;;
9665;SDS011;4871;52.004;5.924;2023-05-07T04:58:01;9.40;;;8.40;;
9665;SDS011;4871;52.004;5.924;2023-05-07T04:59:00;9.40;;;8.40;;
9665;SDS011;4871;52.004;5.924;2023-05-07T05:00:00;9.40;;;8.40;;
9665;SDS011;4871;52.004;5.924;2023-05-07T05:01:00;9.40;;;8.40;;
9665;SDS011;4871;52.004;5.924;2023-05-07T05:02:01;9.40;;;8.40;;
9665;SDS011;4871;52.004;5.924;2023-05-07T05:03:00;9.40;;;8.40;;
9665;SDS011;4871;52.004;5.924;2023-05-07T05:04:00;9.40;;;8.40;;
9665;SDS011;4871;52.004;5.924;2023-05-07T05:05:01;9.40;;;8.40;;
9665;SDS011;4871;52.004;5.924;2023-05-07T05:06:00;9.40;;;8.40;;
9665;SDS011;4871;52.004;5.924;2023-05-07T05:07:00;9.40;;;8.40;;
9665;SDS011;4871;52.004;5.924;2023-05-07T05:08:00;9.40;;;8.40;;
9665;SDS011;4871;52.004;5.924;2023-05-07T05:09:00;9.40;;;8.40;;
9665;SDS011;4871;52.004;5.924;2023-05-07T05:10:01;9.40;;;8.40;;
9665;SDS011;4871;52.004;5.924;2023-05-07T05:11:00;9.40;;;8.40;;
9665;SDS011;4871;52.004;5.924;2023-05-07T05:12:00;9.40;;;8.40;;
9665;SDS011;4871;52.004;5.924;2023-05-07T05:13:00;9.40;;;8.40;;
9665;SDS011;4871;52.004;5.924;2023-05-07T05:14:01;9.40;;;8.40;;
9665;SDS011;4871;52.004;5.924;2023-05-07T05:15:00;9.40;;;8.40;;
9665;SDS011;4871;52.004;5.924;2023-05-07T05:16:00;9.40;;;8.40;;
9665;SDS011;4871;52.004;5.924;2023-05-07T05:17:00;9.40;;;8.40;;
9665;SDS011;4871;52.004;5.924;2023-05-07T05:18:00;9.40;;;8.40;;
9665;SDS011;4871;52.004;5.924;2023-05-07T05:19:01;9.40;;;8.40;;
9665;SDS011;4871;52.004;5.924;2023-05-07T05:20:00;9.40;;;8.40;;
9665;SDS011;4871;52.004;5.924;2023-05-07T05:21:00;8.50;;;7.50;;
9665;SDS011;4871;52.004;5.924;2023-05-07T05:22:01;8.50;;;7.50;;
9665;SDS011;4871;52.004;5.924;2023-05-07T05:23:00;8.50;;;7.50;;
9665;SDS011;4871;52.004;5.924;2023-05-07T05:24:00;8.50;;;7.50;;
9665;SDS011;4871;52.004;5.924;2023-05-07T05:25:01;8.50;;;7.50;;
9665;SDS011;4871;52.004;5.924;2023-05-07T05:26:00;8.50;;;7.50;;
9665;SDS011;4871;52.004;5.924;2023-05-07T05:27:01;8.50;;;7.50;;
9665;SDS011;4871;52.004;5.924;2023-05-07T05:28:01;8.50;;;7.50;;
9665;SDS011;4871;52.004;5.924;2023-05-07T05:29:00;8.50;;;7.50;;
9665;SDS011;4871;52.004;5.924;2023-05-07T05:30:00;8.50;;;7.50;;
9665;SDS011;4871;52.004;5.924;2023-05-07T05:31:00;8.50;;;7.50;;
9665;SDS011;4871;52.004;5.924;2023-05-07T05:32:00;8.50;;;7.50;;
9665;SDS011;4871;52.004;5.924;2023-05-07T05:33:00;8.50;;;7.50;;
9665;SDS011;4871;52.004;5.924;2023-05-07T05:34:01;8.50;;;7.50;;
9665;SDS011;4871;52.004;5.924;2023-05-07T05:35:00;8.50;;;7.50;;
9665;SDS011;4871;52.004;5.924;2023-05-07T05:36:00;8.50;;;7.50;;
9665;SDS011;4871;52.004;5.924;2023-05-07T05:37:00;8.50;;;7.50;;
9665;SDS011;4871;52.004;5.924;2023-05-07T05:38:00;8.50;;;7.50;;
9665;SDS011;4871;52.004;5.924;2023-05-07T05:39:00;8.50;;;7.50;;
9665;SDS011;4871;52.004;5.924;2023-05-07T05:40:00;8.50;;;7.50;;
9665;SDS011;4871;52.004;5.924;2023-05-07T05:41:00;8.50;;;7.50;;
9665;SDS011;4871;52.004;5.924;2023-05-07T05:42:01;8.50;;;7.50;;
9665;SDS011;4871;52.004;5.924;2023-05-07T05:43:00;8.50;;;7.50;;
9665;SDS011;4871;52.004;5.924;2023-05-07T05:44:00;8.50;;;7.50;;
9665;SDS011;4871;52.004;5.924;2023-05-07T05:45:00;8.50;;;7.50;;
9665;SDS011;4871;52.004;5.924;2023-05-07T05:46:00;8.50;;;7.50;;
9665;SDS011;4871;52.004;5.924;2023-05-07T05:47:00;8.50;;;7.50;;
9665;SDS011;4871;52.004;5.924;2023-05-07T05:48:00;8.50;;;7.50;;
9665;SDS011;4871;52.004;5.924;2023-05-07T05:49:00;8.50;;;7.50;;
9665;SDS011;4871;52.004;5.924;2023-05-07T05:50:00;8.50;;;7.50;;
9665;SDS011;4871;52.004;5.924;2023-05-07T05:51:00;8.30;;;7.40;;
9665;SDS011;4871;52.004;5.924;2023-05-07T05:52:00;8.30;;;7.40;;
9665;SDS011;4871;52.004;5.924;2023-05-07T05:53:00;8.30;;;7.40;;
9665;SDS011;4871;52.004;5.924;2023-05-07T05:54:00;8.30;;;7.40;;
9665;SDS011;4871;52.004;5.924;2023-05-07T05:55:00;8.30;;;7.40;;
9665;SDS011;4871;52.004;5.924;2023-05-07T05:56:00;8.30;;;7.40;;
9665;SDS011;4871;52.004;5.924;2023-05-07T05:57:00;8.30;;;7.40;;
9665;SDS011;4871;52.004;5.924;2023-05-07T05:58:00;8.30;;;7.40;;
9665;SDS011;4871;52.004;5.924;2023-05-07T05:59:00;8.30;;;7.40;;
9665;SDS011;4871;52.004;5.924;2023-05-07T06:00:00;8.30;;;7.40;;
9665;SDS011;4871;52.004;5.924;2023-05-07T06:01:02;8.30;;;7.40;;
9665;SDS011;4871;52.004;5.924;2023-05-07T06:02:00;8.30;;;7.40;;
9665;SDS011;4871;52.004;5.924;2023-05-07T06:03:00;8.30;;;7.40;;
9665;SDS011;4871;52.004;5.924;2023-05-07T06:04:00;8.30;;;7.40;;
9665;SDS011;4871;52.004;5.924;2023-05-07T06:05:00;8.30;;;7.40;;
9665;SDS011;4871;52.004;5.924;2023-05-07T06:06:00;8.30;;;7.40;;
9665;SDS011;4871;52.004;5.924;2023-05-07T06:07:00;8.30;;;7.40;;
9665;SDS011;4871;52.004;5.924;2023-05-07T06:08:00;8.30;;;7.40;;
9665;SDS011;4871;52.004;5.924;2023-05-07T06:09:00;8.30;;;7.40;;
9665;SDS011;4871;52.004;5.924;2023-05-07T06:10:00;8.30;;;7.40;;
9665;SDS011;4871;52.004;5.924;2023-05-07T06:11:01;8.30;;;7.40;;
9665;SDS011;4871;52.004;5.924;2023-05-07T06:12:00;8.30;;;7.40;;